createdAt,value
2022-10-17T00:00:28.290Z,4.40
2022-10-17T00:02:55.180Z,4.60
2022-10-17T00:05:21.512Z,4.95
2022-10-17T00:07:47.878Z,5.45
2022-10-17T00:10:14.155Z,5.43
2022-10-17T00:12:40.429Z,5.38
2022-10-17T00:15:07.291Z,5.10
2022-10-17T00:17:33.722Z,5.18
2022-10-17T00:20:00.673Z,5.30
2022-10-17T00:22:27.625Z,5.40
2022-10-17T00:24:53.823Z,5.25
2022-10-17T00:27:20.035Z,5.82
2022-10-17T00:29:49.813Z,5.65
2022-10-17T00:32:16.036Z,6.25
2022-10-17T00:34:42.283Z,4.88
2022-10-17T00:37:08.574Z,5.32
2022-10-17T00:39:34.754Z,5.25
2022-10-17T00:42:00.996Z,5.30
2022-10-17T00:44:30.317Z,5.30
2022-10-17T00:46:56.879Z,5.50
2022-10-17T00:49:24.354Z,5.50
2022-10-17T00:51:52.835Z,5.07
2022-10-17T00:54:20.804Z,5.00
2022-10-17T00:56:47.667Z,5.18
2022-10-17T00:59:15.690Z,5.05
2022-10-17T01:01:43.687Z,5.43
2022-10-17T01:04:10.138Z,5.78
2022-10-17T01:06:36.332Z,4.93
2022-10-17T01:09:02.599Z,5.30
2022-10-17T01:11:28.803Z,5.65
2022-10-17T01:13:58.290Z,5.35
2022-10-17T01:16:34.344Z,5.00
2022-10-17T01:19:19.424Z,6.22
2022-10-17T01:21:56.524Z,5.85
2022-10-17T01:24:34.689Z,5.53
2022-10-17T01:27:00.894Z,5.82
2022-10-17T01:30:05.841Z,5.72
2022-10-17T01:32:37.159Z,5.47
2022-10-17T01:35:26.539Z,4.70
2022-10-17T01:37:59.210Z,5.13
2022-10-17T01:40:28.663Z,5.32
2022-10-17T01:43:00.329Z,4.90
2022-10-17T01:45:43.696Z,5.43
2022-10-17T01:48:13.759Z,5.03
2022-10-17T01:50:43.476Z,5.65
2022-10-17T01:53:20.990Z,5.55
2022-10-17T01:55:48.824Z,5.43
2022-10-17T01:58:28.529Z,5.47
2022-10-17T02:00:56.178Z,5.82
2022-10-17T02:03:23.635Z,5.00
2022-10-17T02:05:49.878Z,5.22
2022-10-17T02:08:25.237Z,5.60
2022-10-17T02:11:02.492Z,5.63
2022-10-17T02:13:28.743Z,4.97
2022-10-17T02:16:12.020Z,5.68
2022-10-17T02:18:58.485Z,5.43
2022-10-17T02:21:31.556Z,5.57
2022-10-17T02:24:00.771Z,5.38
2022-10-17T02:26:27.014Z,5.63
2022-10-17T02:29:11.843Z,5.45
2022-10-17T02:31:46.383Z,5.25
2022-10-17T02:34:21.453Z,5.80
2022-10-17T02:36:49.925Z,5.60
2022-10-17T02:39:16.611Z,5.40
2022-10-17T02:41:43.281Z,5.30
2022-10-17T02:44:10.059Z,5.88
2022-10-17T02:46:37.266Z,5.38
2022-10-17T02:49:16.094Z,5.60
2022-10-17T02:51:45.052Z,5.43
2022-10-17T02:54:11.257Z,5.45
2022-10-17T02:56:41.219Z,5.28
2022-10-17T02:59:08.347Z,5.70
2022-10-17T03:01:35.429Z,5.40
2022-10-17T03:04:08.780Z,4.95
2022-10-17T03:06:35.053Z,5.05
2022-10-17T03:09:01.646Z,6.00
2022-10-17T03:11:27.827Z,5.82
2022-10-17T03:13:54.050Z,5.07
2022-10-17T03:16:20.238Z,5.30
2022-10-17T03:18:49.329Z,6.13
2022-10-17T03:21:16.478Z,5.43
2022-10-17T03:23:42.715Z,5.22
2022-10-17T03:26:08.976Z,5.75
2022-10-17T03:28:35.585Z,5.28
2022-10-17T03:31:09.142Z,5.70
2022-10-17T03:33:35.818Z,5.05
2022-10-17T03:36:05.241Z,5.80
2022-10-17T03:38:31.649Z,5.43
2022-10-17T03:40:57.870Z,5.55
2022-10-17T03:43:24.049Z,5.60
2022-10-17T03:45:50.290Z,5.60
2022-10-17T03:48:16.488Z,5.47
2022-10-17T03:50:42.719Z,5.60
2022-10-17T03:53:08.914Z,5.10
2022-10-17T03:55:35.218Z,5.57
2022-10-17T03:58:01.404Z,5.95
2022-10-17T04:00:27.820Z,5.53
2022-10-17T04:02:54.050Z,5.45
2022-10-17T04:05:20.288Z,5.45
2022-10-17T04:07:46.688Z,5.50
2022-10-17T04:10:13.073Z,5.70
2022-10-17T04:12:39.294Z,5.47
2022-10-17T04:15:06.204Z,5.82
2022-10-17T04:17:35.779Z,5.63
2022-10-17T04:20:04.562Z,5.78
2022-10-17T04:22:31.139Z,5.82
2022-10-17T04:24:57.604Z,5.75
2022-10-17T04:27:23.790Z,5.32
2022-10-17T04:29:49.984Z,5.82
2022-10-17T04:32:16.500Z,5.38
2022-10-17T04:34:42.835Z,6.10
2022-10-17T04:37:09.011Z,5.57
2022-10-17T04:39:35.225Z,5.68
2022-10-17T04:42:01.424Z,5.60
2022-10-17T04:44:30.756Z,5.65
2022-10-17T04:46:56.944Z,5.60
2022-10-17T04:49:23.139Z,6.15
2022-10-17T04:51:49.383Z,6.10
2022-10-17T04:54:15.664Z,4.78
2022-10-17T04:56:41.847Z,5.70
2022-10-17T04:59:08.058Z,5.78
2022-10-17T05:01:34.267Z,5.55
2022-10-17T05:04:00.489Z,5.50
2022-10-17T05:06:30.137Z,5.90
2022-10-17T05:08:57.716Z,5.45
2022-10-17T05:11:28.383Z,5.40
2022-10-17T05:13:56.353Z,6.27
2022-10-17T05:16:22.639Z,5.88
2022-10-17T05:18:53.214Z,6.30
2022-10-17T05:21:19.984Z,5.83
2022-10-17T05:23:46.284Z,6.05
2022-10-17T05:26:12.566Z,5.50
2022-10-17T05:28:38.843Z,6.30
2022-10-17T05:31:06.087Z,5.18
2022-10-17T05:33:32.749Z,5.78
2022-10-17T05:35:59.228Z,5.88
2022-10-17T05:38:25.832Z,5.78
2022-10-17T05:40:52.126Z,5.82
2022-10-17T05:43:18.363Z,5.55
2022-10-17T05:45:44.556Z,5.82
2022-10-17T05:48:10.758Z,5.82
2022-10-17T05:50:37.028Z,6.35
2022-10-17T05:53:03.333Z,6.15
2022-10-17T05:55:29.692Z,5.80
2022-10-17T05:57:56.115Z,5.80
2022-10-17T06:00:22.339Z,5.50
2022-10-17T06:02:48.669Z,5.88
2022-10-17T06:05:15.225Z,5.70
2022-10-17T06:07:41.468Z,5.80
2022-10-17T06:10:07.913Z,5.93
2022-10-17T06:12:34.100Z,5.80
2022-10-17T06:15:00.306Z,5.55
2022-10-17T06:17:26.533Z,5.72
2022-10-17T06:19:52.714Z,5.28
2022-10-17T06:22:19.119Z,5.72
2022-10-17T06:24:45.387Z,5.03
2022-10-17T06:27:12.259Z,5.38
2022-10-17T06:29:38.950Z,5.45
2022-10-17T06:32:05.463Z,5.72
2022-10-17T06:34:31.660Z,5.28
2022-10-17T06:36:57.997Z,5.07
2022-10-17T06:39:26.749Z,5.35
2022-10-17T06:41:52.946Z,5.35
2022-10-17T06:44:19.252Z,5.05
2022-10-17T06:46:45.434Z,5.38
2022-10-17T06:49:11.694Z,5.38
2022-10-17T06:51:37.983Z,4.70
2022-10-17T06:54:04.469Z,4.63
2022-10-17T06:56:30.704Z,5.75
2022-10-17T06:58:56.964Z,5.15
2022-10-17T07:01:23.178Z,5.03
2022-10-17T07:03:52.506Z,5.20
2022-10-17T07:06:19.040Z,4.75
2022-10-17T07:08:45.734Z,4.88
2022-10-17T07:11:13.318Z,4.50
2022-10-17T07:13:39.785Z,4.60
2022-10-17T07:16:06.672Z,4.45
2022-10-17T07:18:32.930Z,4.70
2022-10-17T07:20:59.819Z,4.40
2022-10-17T07:23:26.168Z,4.18
2022-10-17T07:25:52.460Z,4.13
2022-10-17T07:28:19.344Z,4.30
2022-10-17T07:30:47.516Z,3.88
2022-10-17T07:33:15.728Z,4.13
2022-10-17T07:35:42.018Z,4.03
2022-10-17T07:38:08.479Z,4.18
2022-10-17T07:40:34.682Z,4.47
2022-10-17T07:43:01.004Z,4.10
2022-10-17T07:45:27.652Z,3.90
2022-10-17T07:47:57.906Z,3.80
2022-10-17T07:50:24.329Z,3.90
2022-10-17T07:52:50.821Z,4.10
2022-10-17T07:55:17.099Z,3.50
2022-10-17T07:57:43.329Z,3.53
2022-10-17T08:00:09.746Z,3.60
2022-10-17T08:02:35.995Z,3.45
2022-10-17T08:05:02.176Z,3.47
2022-10-17T08:07:30.217Z,3.88
2022-10-17T08:09:56.507Z,5.28
2022-10-17T08:12:22.860Z,3.90
2022-10-17T08:14:49.053Z,3.65
2022-10-17T08:17:15.230Z,3.95
2022-10-17T08:19:41.457Z,3.88
2022-10-17T08:22:08.008Z,3.53
2022-10-17T08:24:34.280Z,3.50
2022-10-17T08:27:00.868Z,3.22
2022-10-17T08:29:27.171Z,3.80
2022-10-17T08:31:58.602Z,3.38
2022-10-17T08:34:28.021Z,4.13
2022-10-17T08:36:54.298Z,3.78
2022-10-17T08:39:20.567Z,4.00
2022-10-17T08:41:46.730Z,3.85
2022-10-17T08:44:12.937Z,4.20
2022-10-17T08:46:40.793Z,3.80
2022-10-17T08:49:12.830Z,4.32
2022-10-17T08:51:44.209Z,3.75
2022-10-17T08:56:48.982Z,3.67
2022-10-17T08:59:21.474Z,4.22
2022-10-17T09:02:11.073Z,4.03
2022-10-17T09:04:49.392Z,4.32
2022-10-17T09:07:22.199Z,3.80
2022-10-17T09:09:59.182Z,3.70
2022-10-17T09:12:31.647Z,4.22
2022-10-17T09:15:16.943Z,3.85
2022-10-17T09:17:43.861Z,4.13
2022-10-17T09:20:10.187Z,3.88
2022-10-17T09:22:59.488Z,3.75
2022-10-17T09:25:26.189Z,3.80
2022-10-17T09:27:54.196Z,4.10
2022-10-17T09:30:44.550Z,4.30
2022-10-17T09:33:28.378Z,3.70
2022-10-17T09:36:02.903Z,4.05
2022-10-17T09:38:34.464Z,4.18
2022-10-17T09:41:01.761Z,4.18
2022-10-17T09:43:28.518Z,3.85
2022-10-17T09:46:06.753Z,4.20
2022-10-17T09:48:37.482Z,4.15
2022-10-17T09:51:15.213Z,3.92
2022-10-17T09:53:51.268Z,4.45
2022-10-17T09:56:18.952Z,4.03
2022-10-17T09:58:46.364Z,4.53
2022-10-17T10:01:21.157Z,4.13
2022-10-17T10:04:10.524Z,4.00
2022-10-17T10:06:36.968Z,4.60
2022-10-17T10:09:05.145Z,4.07
2022-10-17T10:11:45.548Z,4.15
2022-10-17T10:14:13.295Z,3.63
2022-10-17T10:16:43.694Z,4.43
2022-10-17T10:19:29.230Z,3.55
2022-10-17T10:21:57.066Z,4.22
2022-10-17T10:24:30.449Z,3.83
2022-10-17T10:27:02.501Z,3.67
2022-10-17T10:29:31.107Z,3.55
2022-10-17T10:32:16.030Z,3.85
2022-10-17T10:35:00.457Z,4.10
2022-10-17T10:37:28.712Z,4.28
2022-10-17T10:39:57.066Z,4.03
2022-10-17T10:42:28.774Z,4.10
2022-10-17T10:44:57.343Z,3.80
2022-10-17T10:47:23.714Z,4.05
2022-10-17T10:50:06.547Z,4.35
2022-10-17T10:52:36.541Z,5.63
2022-10-17T10:55:06.894Z,5.00
2022-10-17T10:57:34.731Z,3.95
2022-10-17T11:00:06.190Z,4.15
2022-10-17T11:05:01.851Z,4.03
2022-10-17T11:07:32.346Z,4.03
2022-10-17T11:10:18.280Z,3.95
2022-10-17T11:15:33.736Z,4.07
2022-10-17T11:18:02.716Z,4.43
2022-10-17T11:20:29.119Z,4.13
2022-10-17T11:23:04.818Z,3.97
2022-10-17T11:25:32.897Z,4.13
2022-10-17T11:28:03.787Z,4.03
2022-10-17T11:30:37.719Z,4.22
2022-10-17T11:33:04.514Z,4.28
2022-10-17T11:35:33.320Z,4.18
2022-10-17T11:38:14.176Z,3.83
2022-10-17T11:40:42.165Z,3.83
2022-10-17T11:43:15.203Z,4.13
2022-10-17T11:45:43.716Z,3.80
2022-10-17T11:48:25.261Z,3.88
2022-10-17T11:53:44.510Z,3.90
2022-10-17T11:56:12.273Z,4.18
2022-10-17T11:58:45.526Z,3.83
2022-10-17T12:01:17.908Z,3.80
2022-10-17T12:03:44.265Z,4.13
2022-10-17T12:06:29.564Z,3.65
2022-10-17T12:09:07.116Z,4.07
2022-10-17T12:11:44.803Z,4.07
2022-10-17T12:14:30.988Z,4.18
2022-10-17T12:16:57.396Z,3.97
2022-10-17T12:19:24.915Z,4.18
2022-10-17T12:21:58.594Z,4.32
2022-10-17T12:24:42.025Z,3.95
2022-10-17T12:27:28.685Z,3.45
2022-10-17T12:29:59.402Z,3.40
2022-10-17T12:32:30.161Z,3.40
2022-10-17T12:34:59.636Z,3.80
2022-10-17T12:37:44.797Z,3.75
2022-10-17T12:40:29.667Z,3.78
2022-10-17T12:42:55.916Z,3.80
2022-10-17T12:45:57.557Z,3.88
2022-10-17T12:48:32.984Z,3.60
2022-10-17T12:54:11.889Z,3.42
2022-10-17T12:56:40.390Z,3.58
2022-10-17T12:59:08.711Z,3.70
2022-10-17T13:01:37.108Z,3.50
2022-10-17T13:04:05.811Z,3.60
2022-10-17T13:06:37.532Z,3.60
2022-10-17T13:09:05.885Z,3.55
2022-10-17T13:11:33.776Z,3.47
2022-10-17T13:14:01.827Z,3.58
2022-10-17T13:16:32.646Z,3.67
2022-10-17T13:18:59.693Z,3.35
2022-10-17T13:21:26.014Z,2.97
2022-10-17T13:23:53.139Z,3.47
2022-10-17T13:26:20.930Z,3.15
2022-10-17T13:29:00.783Z,3.30
2022-10-17T13:31:29.755Z,3.20
2022-10-17T13:33:57.838Z,3.60
2022-10-17T13:36:24.435Z,3.28
2022-10-17T13:38:50.654Z,4.00
2022-10-17T13:41:35.345Z,3.58
2022-10-17T13:44:04.288Z,3.10
2022-10-17T13:46:38.023Z,3.35
2022-10-17T13:49:15.250Z,5.05
2022-10-17T13:51:51.367Z,3.67
2022-10-17T13:54:18.978Z,4.40
2022-10-17T13:56:45.586Z,3.33
2022-10-17T13:59:22.668Z,4.38
2022-10-17T14:01:49.813Z,4.07
2022-10-17T14:04:20.054Z,4.00
2022-10-17T14:06:49.786Z,3.72
2022-10-17T14:11:45.153Z,4.00
2022-10-17T14:14:20.881Z,3.67
2022-10-17T14:16:47.324Z,3.42
2022-10-17T14:19:25.161Z,3.80
2022-10-17T14:21:56.903Z,5.38
2022-10-17T14:24:23.131Z,10.82
2022-10-17T14:26:50.347Z,6.75
2022-10-17T14:29:25.476Z,4.38
2022-10-17T14:31:57.861Z,3.78
2022-10-17T14:34:27.744Z,4.10
2022-10-17T14:36:54.508Z,3.60
2022-10-17T14:39:22.995Z,3.35
2022-10-17T14:41:49.507Z,3.00
2022-10-17T14:44:18.623Z,3.15
2022-10-17T14:46:49.741Z,3.40
2022-10-17T14:49:24.085Z,3.30
2022-10-17T14:52:12.385Z,2.92
2022-10-17T14:54:44.267Z,3.20
2022-10-17T14:57:24.436Z,3.20
2022-10-17T14:59:55.182Z,3.20
2022-10-17T15:02:22.716Z,2.72
2022-10-17T15:04:48.944Z,2.80
2022-10-17T15:07:15.821Z,3.03
2022-10-17T15:09:42.778Z,3.08
2022-10-17T15:12:13.880Z,2.75
2022-10-17T15:14:40.066Z,3.10
2022-10-17T15:17:13.791Z,2.92
2022-10-17T15:19:39.970Z,2.80
2022-10-17T15:22:06.186Z,2.88
2022-10-17T15:24:32.382Z,3.17
2022-10-17T15:26:58.585Z,3.15
2022-10-17T15:29:24.825Z,2.70
2022-10-17T15:31:50.996Z,3.20
2022-10-17T15:34:17.186Z,3.38
2022-10-17T15:36:48.946Z,2.90
2022-10-17T15:39:15.191Z,2.95
2022-10-17T15:41:41.466Z,2.70
2022-10-17T15:44:07.770Z,3.20
2022-10-17T15:46:34.629Z,3.03
2022-10-17T15:49:02.231Z,2.75
2022-10-17T15:51:28.442Z,2.90
2022-10-17T15:53:54.653Z,2.72
2022-10-17T15:56:25.122Z,2.78
2022-10-17T15:58:51.542Z,2.67
2022-10-17T16:01:27.964Z,2.92
2022-10-17T16:03:54.155Z,2.72
2022-10-17T16:06:20.896Z,2.72
2022-10-17T16:08:47.682Z,2.90
2022-10-17T16:11:28.613Z,2.88
2022-10-17T16:13:56.007Z,3.10
2022-10-17T16:16:22.724Z,2.80
2022-10-17T16:18:48.943Z,3.20
2022-10-17T16:21:15.736Z,3.13
2022-10-17T16:23:42.054Z,3.22
2022-10-17T16:26:09.228Z,3.67
2022-10-17T16:28:36.001Z,3.63
2022-10-17T16:31:02.345Z,4.18
2022-10-17T16:33:28.560Z,4.00
2022-10-17T16:35:54.833Z,3.97
2022-10-17T16:38:21.052Z,3.83
2022-10-17T16:40:47.329Z,4.00
2022-10-17T16:43:13.797Z,3.95
2022-10-17T16:45:40.030Z,3.95
2022-10-17T16:48:06.337Z,3.70
2022-10-17T16:50:35.396Z,4.35
2022-10-17T16:53:03.285Z,4.43
2022-10-17T16:55:29.588Z,3.88
2022-10-17T16:57:55.822Z,3.95
2022-10-17T17:00:22.102Z,4.03
2022-10-17T17:02:48.368Z,4.40
2022-10-17T17:05:14.683Z,3.63
2022-10-17T17:07:40.901Z,3.95
2022-10-17T17:10:07.282Z,4.85
2022-10-17T17:12:34.653Z,4.63
2022-10-17T17:15:01.088Z,4.22
2022-10-17T17:17:37.008Z,4.65
2022-10-17T17:20:13.894Z,4.72
2022-10-17T17:22:40.130Z,5.03
2022-10-17T17:25:06.688Z,4.75
2022-10-17T17:27:33.201Z,4.85
2022-10-17T17:29:59.644Z,4.80
2022-10-17T17:32:26.013Z,4.60
2022-10-17T17:34:52.263Z,4.90
2022-10-17T17:37:18.602Z,4.47
2022-10-17T17:39:44.937Z,4.47
2022-10-17T17:42:11.149Z,4.30
2022-10-17T17:44:37.509Z,4.60
2022-10-17T17:47:03.713Z,4.13
2022-10-17T17:49:29.968Z,4.78
2022-10-17T17:51:56.569Z,4.57
2022-10-17T17:54:22.928Z,3.97
2022-10-17T17:56:49.441Z,4.22
2022-10-17T17:59:15.667Z,4.70
2022-10-17T18:01:42.954Z,4.43
2022-10-17T18:04:09.504Z,4.88
2022-10-17T18:06:36.534Z,5.07
2022-10-17T18:09:03.833Z,3.92
2022-10-17T18:11:30.164Z,4.10
2022-10-17T18:14:00.836Z,4.15
2022-10-17T18:16:27.970Z,4.13
2022-10-17T18:18:54.512Z,3.63
2022-10-17T18:21:20.794Z,4.20
2022-10-17T18:23:47.886Z,4.38
2022-10-17T18:26:14.784Z,4.03
2022-10-17T18:31:15.325Z,4.53
2022-10-17T18:33:42.878Z,4.63
2022-10-17T18:36:10.368Z,5.30
2022-10-17T18:38:37.213Z,4.63
2022-10-17T18:41:04.094Z,4.70
2022-10-17T18:43:31.863Z,4.32
2022-10-17T18:46:01.712Z,5.10
2022-10-17T18:48:28.044Z,4.32
2022-10-17T18:50:54.249Z,4.70
2022-10-17T18:53:20.517Z,5.22
2022-10-17T18:58:19.508Z,4.80
2022-10-17T19:00:46.069Z,4.80
2022-10-17T19:03:12.287Z,5.10
2022-10-17T19:05:39.221Z,4.63
2022-10-17T19:08:05.496Z,4.80
2022-10-17T19:10:35.001Z,4.38
2022-10-17T19:13:01.203Z,4.95
2022-10-17T19:15:27.401Z,5.20
2022-10-17T19:17:53.583Z,4.60
2022-10-17T19:20:19.834Z,5.22
2022-10-17T19:22:46.097Z,5.43
2022-10-17T19:25:12.452Z,5.90
2022-10-17T19:27:38.663Z,4.55
2022-10-17T19:30:05.088Z,5.18
2022-10-17T19:32:32.950Z,6.15
2022-10-17T19:34:59.561Z,5.10
2022-10-17T19:37:25.760Z,5.70
2022-10-17T19:39:51.976Z,5.38
2022-10-17T19:42:18.191Z,5.38
2022-10-17T19:44:44.422Z,4.57
2022-10-17T19:47:10.772Z,4.85
2022-10-17T19:49:37.042Z,4.93
2022-10-17T19:52:03.324Z,4.55
2022-10-17T19:54:29.738Z,4.95
2022-10-17T19:56:55.988Z,4.53
2022-10-17T19:59:22.376Z,4.45
2022-10-17T20:01:48.633Z,4.97
2022-10-17T20:04:14.900Z,4.40
2022-10-17T20:06:41.515Z,4.50
2022-10-17T20:09:09.894Z,4.88
2022-10-17T20:11:38.716Z,5.05
2022-10-17T20:14:05.762Z,4.90
2022-10-17T20:16:32.505Z,4.90
2022-10-17T20:19:02.627Z,5.22
2022-10-17T20:21:31.403Z,4.65
2022-10-17T20:23:58.800Z,4.72
2022-10-17T20:26:37.119Z,4.35
2022-10-17T20:29:05.650Z,3.65
2022-10-17T20:31:31.891Z,3.92
2022-10-17T20:33:58.937Z,4.13
2022-10-17T20:36:25.836Z,4.00
2022-10-17T20:38:56.123Z,4.05
2022-10-17T20:41:22.661Z,4.40
2022-10-17T20:43:53.109Z,4.25
2022-10-17T20:46:29.740Z,4.18
2022-10-17T20:49:01.972Z,4.38
2022-10-17T20:51:28.180Z,4.10
2022-10-17T20:53:54.477Z,4.68
2022-10-17T20:56:22.470Z,5.68
2022-10-17T20:58:55.626Z,6.45
2022-10-17T21:01:22.137Z,5.60
2022-10-17T21:03:48.660Z,5.57
2022-10-17T21:06:15.591Z,5.45
2022-10-17T21:08:41.959Z,5.40
2022-10-17T21:11:09.121Z,21.83
2022-10-17T21:13:35.344Z,8.82
2022-10-17T21:16:05.435Z,4.25
2022-10-17T21:18:31.666Z,3.88
2022-10-17T21:21:06.208Z,3.83
2022-10-17T21:23:32.427Z,4.30
2022-10-17T21:25:59.226Z,3.55
2022-10-17T21:28:25.556Z,2.83
2022-10-17T21:30:51.831Z,3.53
2022-10-17T21:33:18.033Z,3.45
2022-10-17T21:35:44.294Z,4.00
2022-10-17T21:38:10.617Z,4.03
2022-10-17T21:40:36.900Z,4.05
2022-10-17T21:43:03.087Z,4.18
2022-10-17T21:45:29.312Z,4.13
2022-10-17T21:48:12.220Z,4.80
2022-10-17T21:50:39.047Z,5.15
2022-10-17T21:53:05.297Z,5.28
2022-10-17T21:55:31.560Z,5.63
2022-10-17T21:57:57.852Z,5.38
2022-10-17T22:00:24.082Z,5.32
2022-10-17T22:02:50.271Z,5.25
2022-10-17T22:05:16.462Z,5.13
2022-10-17T22:07:42.635Z,4.97
2022-10-17T22:10:08.979Z,5.13
2022-10-17T22:12:35.181Z,5.10
2022-10-17T22:15:01.493Z,4.85
2022-10-17T22:17:27.945Z,5.40
2022-10-17T22:19:54.335Z,5.07
2022-10-17T22:22:20.540Z,5.75
2022-10-17T22:24:46.720Z,6.55
2022-10-17T22:27:13.048Z,6.93
2022-10-17T22:29:39.568Z,6.55
2022-10-17T22:32:05.779Z,6.35
2022-10-17T22:34:31.980Z,6.88
2022-10-17T22:36:58.237Z,6.60
2022-10-17T22:39:24.436Z,6.25
2022-10-17T22:41:50.637Z,6.32
2022-10-17T22:44:16.848Z,6.43
2022-10-17T22:46:43.055Z,6.32
2022-10-17T22:49:09.354Z,6.07
2022-10-17T22:51:35.575Z,5.75
2022-10-17T22:54:01.772Z,5.75
2022-10-17T22:56:28.277Z,6.10
2022-10-17T22:58:54.476Z,6.50
2022-10-17T23:01:22.226Z,6.47
2022-10-17T23:03:48.659Z,6.15
2022-10-17T23:06:14.982Z,4.93
2022-10-17T23:08:41.481Z,6.03
2022-10-17T23:11:08.383Z,5.60
2022-10-17T23:13:35.014Z,5.53
2022-10-17T23:16:01.274Z,5.03
2022-10-17T23:18:27.720Z,5.43
2022-10-17T23:20:54.427Z,5.60
2022-10-17T23:23:20.831Z,5.03
2022-10-17T23:25:47.491Z,5.63
2022-10-17T23:28:13.695Z,4.60
2022-10-17T23:30:39.930Z,5.57
2022-10-17T23:33:06.831Z,5.45
2022-10-17T23:35:33.563Z,5.22
2022-10-17T23:37:59.928Z,4.90
2022-10-17T23:40:26.178Z,5.25
2022-10-17T23:42:52.380Z,5.63
2022-10-17T23:45:18.619Z,5.80
2022-10-17T23:47:44.982Z,5.35
2022-10-17T23:50:11.224Z,5.25
2022-10-17T23:52:37.407Z,4.95
2022-10-17T23:55:04.169Z,5.07
2022-10-17T23:57:30.685Z,5.00
2022-10-17T23:59:57.185Z,5.60
